sensor_id;sensor_type;location;lat;lon;timestamp;P1;durP1;ratioP1;P2;durP2;ratioP2
76856;SDS011;66179;44.686;37.628;2023-03-07T00:01:05;11.35;;;4.05;;
76856;SDS011;66179;44.686;37.628;2023-03-07T00:03:32;10.05;;;4.00;;
76856;SDS011;66179;44.686;37.628;2023-03-07T00:06:09;10.03;;;4.20;;
76856;SDS011;66179;44.686;37.628;2023-03-07T00:08:36;8.32;;;3.72;;
76856;SDS011;66179;44.686;37.628;2023-03-07T00:11:04;8.93;;;3.35;;
76856;SDS011;66179;44.686;37.628;2023-03-07T00:13:33;11.07;;;4.28;;
76856;SDS011;66179;44.686;37.628;2023-03-07T00:16:02;10.73;;;3.90;;
76856;SDS011;66179;44.686;37.628;2023-03-07T00:18:31;8.43;;;3.70;;
76856;SDS011;66179;44.686;37.628;2023-03-07T00:20:59;9.65;;;3.88;;
76856;SDS011;66179;44.686;37.628;2023-03-07T00:23:32;8.73;;;3.53;;
76856;SDS011;66179;44.686;37.628;2023-03-07T00:26:01;14.88;;;5.80;;
76856;SDS011;66179;44.686;37.628;2023-03-07T00:28:37;8.48;;;3.38;;
76856;SDS011;66179;44.686;37.628;2023-03-07T00:31:05;11.97;;;3.80;;
76856;SDS011;66179;44.686;37.628;2023-03-07T00:33:34;7.72;;;3.10;;
76856;SDS011;66179;44.686;37.628;2023-03-07T00:36:02;9.13;;;3.50;;
76856;SDS011;66179;44.686;37.628;2023-03-07T00:38:31;9.00;;;3.10;;
76856;SDS011;66179;44.686;37.628;2023-03-07T00:41:00;7.95;;;2.60;;
76856;SDS011;66179;44.686;37.628;2023-03-07T00:43:29;8.73;;;2.87;;
76856;SDS011;66179;44.686;37.628;2023-03-07T00:45:57;8.13;;;2.10;;
76856;SDS011;66179;44.686;37.628;2023-03-07T00:48:26;6.53;;;2.38;;
76856;SDS011;66179;44.686;37.628;2023-03-07T00:50:55;7.78;;;2.25;;
76856;SDS011;66179;44.686;37.628;2023-03-07T00:53:24;7.70;;;2.50;;
76856;SDS011;66179;44.686;37.628;2023-03-07T00:55:58;6.93;;;2.40;;
76856;SDS011;66179;44.686;37.628;2023-03-07T00:58:38;6.63;;;2.10;;
76856;SDS011;66179;44.686;37.628;2023-03-07T01:01:05;6.72;;;2.15;;
76856;SDS011;66179;44.686;37.628;2023-03-07T01:03:33;6.10;;;2.30;;
76856;SDS011;66179;44.686;37.628;2023-03-07T01:06:01;7.53;;;2.03;;
76856;SDS011;66179;44.686;37.628;2023-03-07T01:08:30;7.50;;;2.23;;
76856;SDS011;66179;44.686;37.628;2023-03-07T01:10:58;7.50;;;2.50;;
76856;SDS011;66179;44.686;37.628;2023-03-07T01:13:26;8.18;;;2.17;;
76856;SDS011;66179;44.686;37.628;2023-03-07T01:15:53;7.30;;;2.35;;
76856;SDS011;66179;44.686;37.628;2023-03-07T01:18:20;6.60;;;1.95;;
76856;SDS011;66179;44.686;37.628;2023-03-07T01:20:48;7.10;;;1.93;;
76856;SDS011;66179;44.686;37.628;2023-03-07T01:23:15;7.35;;;2.03;;
76856;SDS011;66179;44.686;37.628;2023-03-07T01:25:43;6.15;;;2.30;;
76856;SDS011;66179;44.686;37.628;2023-03-07T01:28:11;6.57;;;1.95;;
76856;SDS011;66179;44.686;37.628;2023-03-07T01:30:39;7.38;;;1.92;;
76856;SDS011;66179;44.686;37.628;2023-03-07T01:33:07;6.73;;;1.90;;
76856;SDS011;66179;44.686;37.628;2023-03-07T01:35:38;7.30;;;2.15;;
76856;SDS011;66179;44.686;37.628;2023-03-07T01:38:05;6.88;;;1.98;;
76856;SDS011;66179;44.686;37.628;2023-03-07T01:40:34;9.48;;;1.88;;
76856;SDS011;66179;44.686;37.628;2023-03-07T01:43:23;6.38;;;2.05;;
76856;SDS011;66179;44.686;37.628;2023-03-07T01:51:16;7.95;;;2.00;;
76856;SDS011;66179;44.686;37.628;2023-03-07T01:53:44;6.25;;;1.67;;
76856;SDS011;66179;44.686;37.628;2023-03-07T01:56:13;6.00;;;2.08;;
76856;SDS011;66179;44.686;37.628;2023-03-07T01:58:40;5.30;;;1.70;;
76856;SDS011;66179;44.686;37.628;2023-03-07T02:01:09;5.90;;;1.73;;
76856;SDS011;66179;44.686;37.628;2023-03-07T02:03:44;5.90;;;1.70;;
76856;SDS011;66179;44.686;37.628;2023-03-07T02:06:36;5.75;;;1.88;;
76856;SDS011;66179;44.686;37.628;2023-03-07T02:09:08;6.20;;;1.98;;
76856;SDS011;66179;44.686;37.628;2023-03-07T02:11:41;7.43;;;2.00;;
76856;SDS011;66179;44.686;37.628;2023-03-07T02:14:09;6.40;;;1.90;;
76856;SDS011;66179;44.686;37.628;2023-03-07T02:16:36;6.55;;;1.83;;
76856;SDS011;66179;44.686;37.628;2023-03-07T02:19:13;8.32;;;2.10;;
76856;SDS011;66179;44.686;37.628;2023-03-07T02:22:07;6.65;;;2.00;;
76856;SDS011;66179;44.686;37.628;2023-03-07T02:27:16;6.53;;;2.00;;
76856;SDS011;66179;44.686;37.628;2023-03-07T02:29:43;6.68;;;1.85;;
76856;SDS011;66179;44.686;37.628;2023-03-07T02:32:11;6.65;;;1.70;;
76856;SDS011;66179;44.686;37.628;2023-03-07T02:34:40;7.53;;;1.70;;
76856;SDS011;66179;44.686;37.628;2023-03-07T02:37:14;9.60;;;2.03;;
76856;SDS011;66179;44.686;37.628;2023-03-07T02:39:45;7.28;;;1.70;;
76856;SDS011;66179;44.686;37.628;2023-03-07T02:42:25;8.30;;;1.70;;
76856;SDS011;66179;44.686;37.628;2023-03-07T02:45:05;7.68;;;1.52;;
76856;SDS011;66179;44.686;37.628;2023-03-07T02:47:36;6.55;;;1.70;;
76856;SDS011;66179;44.686;37.628;2023-03-07T02:50:04;6.40;;;1.63;;
76856;SDS011;66179;44.686;37.628;2023-03-07T02:52:33;8.57;;;1.63;;
76856;SDS011;66179;44.686;37.628;2023-03-07T02:55:00;7.43;;;1.63;;
76856;SDS011;66179;44.686;37.628;2023-03-07T02:57:31;6.68;;;1.73;;
76856;SDS011;66179;44.686;37.628;2023-03-07T02:59:59;9.85;;;1.92;;
76856;SDS011;66179;44.686;37.628;2023-03-07T03:02:25;10.13;;;1.80;;
76856;SDS011;66179;44.686;37.628;2023-03-07T03:04:52;8.23;;;2.10;;
76856;SDS011;66179;44.686;37.628;2023-03-07T03:07:22;8.73;;;1.90;;
76856;SDS011;66179;44.686;37.628;2023-03-07T03:09:49;7.90;;;2.10;;
76856;SDS011;66179;44.686;37.628;2023-03-07T03:12:16;7.30;;;2.15;;
76856;SDS011;66179;44.686;37.628;2023-03-07T03:14:44;9.87;;;1.97;;
76856;SDS011;66179;44.686;37.628;2023-03-07T03:17:10;7.45;;;1.50;;
76856;SDS011;66179;44.686;37.628;2023-03-07T03:19:37;8.70;;;1.77;;
76856;SDS011;66179;44.686;37.628;2023-03-07T03:22:04;7.05;;;1.90;;
76856;SDS011;66179;44.686;37.628;2023-03-07T03:24:39;10.10;;;3.38;;
76856;SDS011;66179;44.686;37.628;2023-03-07T03:27:08;9.37;;;2.30;;
76856;SDS011;66179;44.686;37.628;2023-03-07T03:29:35;8.73;;;2.10;;
76856;SDS011;66179;44.686;37.628;2023-03-07T03:32:03;8.43;;;2.42;;
76856;SDS011;66179;44.686;37.628;2023-03-07T03:34:31;7.35;;;1.98;;
76856;SDS011;66179;44.686;37.628;2023-03-07T03:36:57;7.63;;;2.20;;
76856;SDS011;66179;44.686;37.628;2023-03-07T03:39:24;7.97;;;2.03;;
76856;SDS011;66179;44.686;37.628;2023-03-07T03:41:55;5.57;;;1.70;;
76856;SDS011;66179;44.686;37.628;2023-03-07T03:44:25;8.70;;;1.77;;
76856;SDS011;66179;44.686;37.628;2023-03-07T03:46:52;9.55;;;1.65;;
76856;SDS011;66179;44.686;37.628;2023-03-07T03:49:21;6.60;;;1.58;;
76856;SDS011;66179;44.686;37.628;2023-03-07T03:51:50;6.83;;;1.93;;
76856;SDS011;66179;44.686;37.628;2023-03-07T03:54:17;7.20;;;1.67;;
76856;SDS011;66179;44.686;37.628;2023-03-07T03:56:44;16.15;;;2.17;;
76856;SDS011;66179;44.686;37.628;2023-03-07T03:59:11;6.47;;;1.52;;
76856;SDS011;66179;44.686;37.628;2023-03-07T04:01:37;6.65;;;1.70;;
76856;SDS011;66179;44.686;37.628;2023-03-07T04:04:04;6.83;;;1.80;;
76856;SDS011;66179;44.686;37.628;2023-03-07T04:06:32;10.13;;;1.67;;
76856;SDS011;66179;44.686;37.628;2023-03-07T04:09:00;8.20;;;1.90;;
76856;SDS011;66179;44.686;37.628;2023-03-07T04:11:29;5.55;;;1.50;;
76856;SDS011;66179;44.686;37.628;2023-03-07T04:13:56;6.93;;;1.90;;
76856;SDS011;66179;44.686;37.628;2023-03-07T04:16:24;5.30;;;1.40;;
76856;SDS011;66179;44.686;37.628;2023-03-07T04:18:51;5.75;;;1.40;;
76856;SDS011;66179;44.686;37.628;2023-03-07T04:21:20;7.15;;;1.50;;
76856;SDS011;66179;44.686;37.628;2023-03-07T04:23:48;6.30;;;1.40;;
76856;SDS011;66179;44.686;37.628;2023-03-07T04:26:21;9.02;;;1.77;;
76856;SDS011;66179;44.686;37.628;2023-03-07T04:28:48;6.40;;;1.90;;
76856;SDS011;66179;44.686;37.628;2023-03-07T04:31:35;6.57;;;1.70;;
76856;SDS011;66179;44.686;37.628;2023-03-07T04:34:04;5.65;;;1.40;;
76856;SDS011;66179;44.686;37.628;2023-03-07T04:36:31;8.40;;;1.60;;
76856;SDS011;66179;44.686;37.628;2023-03-07T04:38:57;9.27;;;1.60;;
76856;SDS011;66179;44.686;37.628;2023-03-07T04:41:25;7.70;;;1.50;;
76856;SDS011;66179;44.686;37.628;2023-03-07T04:44:15;5.43;;;1.30;;
76856;SDS011;66179;44.686;37.628;2023-03-07T04:46:42;5.68;;;1.40;;
76856;SDS011;66179;44.686;37.628;2023-03-07T04:49:09;5.85;;;1.45;;
76856;SDS011;66179;44.686;37.628;2023-03-07T04:51:36;6.22;;;1.50;;
76856;SDS011;66179;44.686;37.628;2023-03-07T04:54:04;5.37;;;1.50;;
76856;SDS011;66179;44.686;37.628;2023-03-07T04:56:31;7.60;;;1.60;;
76856;SDS011;66179;44.686;37.628;2023-03-07T04:58:58;6.40;;;1.75;;
76856;SDS011;66179;44.686;37.628;2023-03-07T05:01:25;11.15;;;1.50;;
76856;SDS011;66179;44.686;37.628;2023-03-07T05:03:53;7.18;;;1.40;;
76856;SDS011;66179;44.686;37.628;2023-03-07T05:06:20;7.87;;;1.80;;
76856;SDS011;66179;44.686;37.628;2023-03-07T05:08:49;5.82;;;1.50;;
76856;SDS011;66179;44.686;37.628;2023-03-07T05:11:16;9.75;;;2.05;;
76856;SDS011;66179;44.686;37.628;2023-03-07T05:13:43;10.25;;;1.90;;
76856;SDS011;66179;44.686;37.628;2023-03-07T05:16:11;7.57;;;1.83;;
76856;SDS011;66179;44.686;37.628;2023-03-07T05:18:38;5.20;;;1.37;;
76856;SDS011;66179;44.686;37.628;2023-03-07T05:21:05;15.82;;;1.88;;
76856;SDS011;66179;44.686;37.628;2023-03-07T05:23:32;8.77;;;2.22;;
76856;SDS011;66179;44.686;37.628;2023-03-07T05:25:58;6.07;;;1.30;;
76856;SDS011;66179;44.686;37.628;2023-03-07T05:28:25;6.38;;;1.60;;
76856;SDS011;66179;44.686;37.628;2023-03-07T05:30:52;7.47;;;1.40;;
76856;SDS011;66179;44.686;37.628;2023-03-07T05:33:19;5.88;;;1.25;;
76856;SDS011;66179;44.686;37.628;2023-03-07T05:35:46;7.22;;;1.48;;
76856;SDS011;66179;44.686;37.628;2023-03-07T05:38:13;5.80;;;1.17;;
76856;SDS011;66179;44.686;37.628;2023-03-07T05:40:40;8.75;;;1.98;;
76856;SDS011;66179;44.686;37.628;2023-03-07T05:43:09;11.87;;;2.70;;
76856;SDS011;66179;44.686;37.628;2023-03-07T05:45:35;11.88;;;2.28;;
76856;SDS011;66179;44.686;37.628;2023-03-07T05:48:02;11.52;;;3.05;;
76856;SDS011;66179;44.686;37.628;2023-03-07T05:50:30;14.50;;;5.07;;
76856;SDS011;66179;44.686;37.628;2023-03-07T05:52:57;11.40;;;3.10;;
76856;SDS011;66179;44.686;37.628;2023-03-07T05:55:27;17.13;;;1.90;;
76856;SDS011;66179;44.686;37.628;2023-03-07T05:57:54;7.63;;;1.70;;
76856;SDS011;66179;44.686;37.628;2023-03-07T06:00:21;6.38;;;1.40;;
76856;SDS011;66179;44.686;37.628;2023-03-07T06:02:53;10.88;;;1.58;;
76856;SDS011;66179;44.686;37.628;2023-03-07T06:05:20;12.50;;;2.05;;
76856;SDS011;66179;44.686;37.628;2023-03-07T06:07:47;9.67;;;1.60;;
76856;SDS011;66179;44.686;37.628;2023-03-07T06:10:15;8.07;;;1.83;;
76856;SDS011;66179;44.686;37.628;2023-03-07T06:12:42;10.43;;;1.80;;
76856;SDS011;66179;44.686;37.628;2023-03-07T06:15:08;8.93;;;1.80;;
76856;SDS011;66179;44.686;37.628;2023-03-07T06:17:36;7.57;;;1.60;;
76856;SDS011;66179;44.686;37.628;2023-03-07T06:20:03;9.07;;;1.80;;
76856;SDS011;66179;44.686;37.628;2023-03-07T06:22:31;10.13;;;1.95;;
76856;SDS011;66179;44.686;37.628;2023-03-07T06:25:00;11.38;;;2.00;;
76856;SDS011;66179;44.686;37.628;2023-03-07T06:27:27;6.63;;;1.80;;
76856;SDS011;66179;44.686;37.628;2023-03-07T06:29:56;10.27;;;1.70;;
76856;SDS011;66179;44.686;37.628;2023-03-07T06:32:23;10.67;;;1.90;;
76856;SDS011;66179;44.686;37.628;2023-03-07T06:34:50;9.18;;;1.98;;
76856;SDS011;66179;44.686;37.628;2023-03-07T06:37:16;10.80;;;1.77;;
76856;SDS011;66179;44.686;37.628;2023-03-07T06:39:43;9.13;;;1.60;;
76856;SDS011;66179;44.686;37.628;2023-03-07T06:42:10;8.65;;;2.10;;
76856;SDS011;66179;44.686;37.628;2023-03-07T06:44:37;7.07;;;1.70;;
76856;SDS011;66179;44.686;37.628;2023-03-07T06:47:04;8.90;;;2.13;;
76856;SDS011;66179;44.686;37.628;2023-03-07T06:49:31;6.25;;;1.75;;
76856;SDS011;66179;44.686;37.628;2023-03-07T06:51:58;7.63;;;1.83;;
76856;SDS011;66179;44.686;37.628;2023-03-07T06:54:26;10.32;;;2.13;;
76856;SDS011;66179;44.686;37.628;2023-03-07T06:56:52;7.80;;;1.70;;
76856;SDS011;66179;44.686;37.628;2023-03-07T06:59:22;8.20;;;2.00;;
76856;SDS011;66179;44.686;37.628;2023-03-07T07:01:49;7.28;;;2.05;;
76856;SDS011;66179;44.686;37.628;2023-03-07T07:04:17;12.18;;;2.20;;
76856;SDS011;66179;44.686;37.628;2023-03-07T07:06:44;11.30;;;2.17;;
76856;SDS011;66179;44.686;37.628;2023-03-07T07:09:12;10.37;;;2.33;;
76856;SDS011;66179;44.686;37.628;2023-03-07T07:11:41;10.10;;;2.22;;
76856;SDS011;66179;44.686;37.628;2023-03-07T07:14:11;10.07;;;2.08;;
76856;SDS011;66179;44.686;37.628;2023-03-07T07:16:39;7.78;;;2.20;;
76856;SDS011;66179;44.686;37.628;2023-03-07T07:19:07;13.63;;;2.17;;
76856;SDS011;66179;44.686;37.628;2023-03-07T07:21:35;14.63;;;2.17;;
76856;SDS011;66179;44.686;37.628;2023-03-07T07:24:02;10.65;;;2.28;;
76856;SDS011;66179;44.686;37.628;2023-03-07T07:26:31;10.90;;;2.90;;
76856;SDS011;66179;44.686;37.628;2023-03-07T07:28:59;11.90;;;2.53;;
76856;SDS011;66179;44.686;37.628;2023-03-07T07:31:26;10.95;;;2.33;;
76856;SDS011;66179;44.686;37.628;2023-03-07T07:33:53;9.07;;;2.63;;
76856;SDS011;66179;44.686;37.628;2023-03-07T07:36:22;13.82;;;2.60;;
76856;SDS011;66179;44.686;37.628;2023-03-07T07:38:50;8.82;;;2.50;;
76856;SDS011;66179;44.686;37.628;2023-03-07T07:41:17;8.35;;;2.33;;
76856;SDS011;66179;44.686;37.628;2023-03-07T07:43:44;12.65;;;2.80;;
76856;SDS011;66179;44.686;37.628;2023-03-07T07:46:21;9.63;;;2.60;;
76856;SDS011;66179;44.686;37.628;2023-03-07T07:48:48;9.52;;;2.70;;
76856;SDS011;66179;44.686;37.628;2023-03-07T07:51:16;10.15;;;2.60;;
76856;SDS011;66179;44.686;37.628;2023-03-07T07:53:42;10.18;;;2.50;;
76856;SDS011;66179;44.686;37.628;2023-03-07T07:56:10;13.25;;;2.63;;
76856;SDS011;66179;44.686;37.628;2023-03-07T07:58:37;10.13;;;2.50;;
76856;SDS011;66179;44.686;37.628;2023-03-07T08:01:14;12.73;;;2.70;;
76856;SDS011;66179;44.686;37.628;2023-03-07T08:03:42;10.05;;;2.35;;
76856;SDS011;66179;44.686;37.628;2023-03-07T08:06:09;9.45;;;2.40;;
76856;SDS011;66179;44.686;37.628;2023-03-07T08:08:37;10.20;;;2.70;;
76856;SDS011;66179;44.686;37.628;2023-03-07T08:11:05;13.33;;;3.07;;
76856;SDS011;66179;44.686;37.628;2023-03-07T08:13:32;11.68;;;2.70;;
76856;SDS011;66179;44.686;37.628;2023-03-07T08:15:58;9.77;;;2.72;;
76856;SDS011;66179;44.686;37.628;2023-03-07T08:18:25;12.55;;;2.65;;
76856;SDS011;66179;44.686;37.628;2023-03-07T08:20:52;8.98;;;2.17;;
76856;SDS011;66179;44.686;37.628;2023-03-07T08:23:19;9.37;;;2.17;;
76856;SDS011;66179;44.686;37.628;2023-03-07T08:25:45;10.52;;;2.28;;
76856;SDS011;66179;44.686;37.628;2023-03-07T08:28:12;11.68;;;2.13;;
76856;SDS011;66179;44.686;37.628;2023-03-07T08:30:39;10.98;;;2.78;;
76856;SDS011;66179;44.686;37.628;2023-03-07T08:33:06;13.38;;;2.72;;
76856;SDS011;66179;44.686;37.628;2023-03-07T08:35:33;10.97;;;2.30;;
76856;SDS011;66179;44.686;37.628;2023-03-07T08:37:59;11.02;;;2.22;;
76856;SDS011;66179;44.686;37.628;2023-03-07T08:40:27;11.75;;;3.10;;
76856;SDS011;66179;44.686;37.628;2023-03-07T08:42:55;10.50;;;2.40;;
76856;SDS011;66179;44.686;37.628;2023-03-07T08:45:24;9.70;;;1.88;;
76856;SDS011;66179;44.686;37.628;2023-03-07T08:47:55;12.57;;;2.10;;
76856;SDS011;66179;44.686;37.628;2023-03-07T08:50:23;12.02;;;1.80;;
76856;SDS011;66179;44.686;37.628;2023-03-07T08:52:51;10.60;;;2.20;;
76856;SDS011;66179;44.686;37.628;2023-03-07T08:55:18;8.35;;;2.05;;
76856;SDS011;66179;44.686;37.628;2023-03-07T08:57:45;8.02;;;1.80;;
76856;SDS011;66179;44.686;37.628;2023-03-07T09:00:12;10.20;;;2.23;;
76856;SDS011;66179;44.686;37.628;2023-03-07T09:02:40;15.70;;;1.90;;
76856;SDS011;66179;44.686;37.628;2023-03-07T09:05:06;12.43;;;2.10;;
76856;SDS011;66179;44.686;37.628;2023-03-07T09:07:34;10.95;;;2.30;;
76856;SDS011;66179;44.686;37.628;2023-03-07T09:10:01;9.13;;;2.17;;
76856;SDS011;66179;44.686;37.628;2023-03-07T09:12:27;9.80;;;2.00;;
76856;SDS011;66179;44.686;37.628;2023-03-07T09:14:54;12.98;;;2.17;;
76856;SDS011;66179;44.686;37.628;2023-03-07T09:17:21;12.82;;;2.30;;
76856;SDS011;66179;44.686;37.628;2023-03-07T09:19:48;10.57;;;2.20;;
76856;SDS011;66179;44.686;37.628;2023-03-07T09:22:15;9.45;;;2.00;;
76856;SDS011;66179;44.686;37.628;2023-03-07T09:24:41;8.77;;;2.20;;
76856;SDS011;66179;44.686;37.628;2023-03-07T09:27:08;9.30;;;1.75;;
76856;SDS011;66179;44.686;37.628;2023-03-07T09:29:36;8.75;;;1.92;;
76856;SDS011;66179;44.686;37.628;2023-03-07T09:32:03;13.50;;;2.20;;
76856;SDS011;66179;44.686;37.628;2023-03-07T09:34:29;10.55;;;2.15;;
76856;SDS011;66179;44.686;37.628;2023-03-07T09:36:56;10.77;;;2.20;;
76856;SDS011;66179;44.686;37.628;2023-03-07T09:39:23;11.77;;;2.20;;
76856;SDS011;66179;44.686;37.628;2023-03-07T09:50:22;15.77;;;2.87;;
76856;SDS011;66179;44.686;37.628;2023-03-07T09:52:57;11.95;;;2.22;;
76856;SDS011;66179;44.686;37.628;2023-03-07T09:55:26;15.13;;;2.58;;
76856;SDS011;66179;44.686;37.628;2023-03-07T09:57:59;11.00;;;2.42;;
76856;SDS011;66179;44.686;37.628;2023-03-07T10:00:35;10.48;;;2.20;;
76856;SDS011;66179;44.686;37.628;2023-03-07T10:05:43;10.68;;;2.50;;
76856;SDS011;66179;44.686;37.628;2023-03-07T10:08:16;13.80;;;2.30;;
76856;SDS011;66179;44.686;37.628;2023-03-07T10:13:44;11.75;;;2.60;;
76856;SDS011;66179;44.686;37.628;2023-03-07T10:16:30;13.83;;;2.50;;
76856;SDS011;66179;44.686;37.628;2023-03-07T10:28:06;14.85;;;2.78;;
76856;SDS011;66179;44.686;37.628;2023-03-07T10:30:49;12.13;;;2.77;;
76856;SDS011;66179;44.686;37.628;2023-03-07T10:33:19;13.57;;;3.00;;
76856;SDS011;66179;44.686;37.628;2023-03-07T10:35:47;14.57;;;3.38;;
76856;SDS011;66179;44.686;37.628;2023-03-07T10:38:32;13.05;;;2.80;;
76856;SDS011;66179;44.686;37.628;2023-03-07T10:41:16;13.35;;;2.90;;
76856;SDS011;66179;44.686;37.628;2023-03-07T10:43:47;12.37;;;2.83;;
76856;SDS011;66179;44.686;37.628;2023-03-07T10:48:48;17.88;;;2.85;;
76856;SDS011;66179;44.686;37.628;2023-03-07T10:54:23;14.60;;;3.10;;
76856;SDS011;66179;44.686;37.628;2023-03-07T10:59:33;13.70;;;3.00;;
76856;SDS011;66179;44.686;37.628;2023-03-07T11:02:01;13.38;;;2.75;;
76856;SDS011;66179;44.686;37.628;2023-03-07T11:04:47;10.02;;;2.88;;
76856;SDS011;66179;44.686;37.628;2023-03-07T11:07:33;18.88;;;3.30;;
76856;SDS011;66179;44.686;37.628;2023-03-07T11:10:01;13.57;;;3.20;;
76856;SDS011;66179;44.686;37.628;2023-03-07T11:12:48;12.57;;;3.20;;
76856;SDS011;66179;44.686;37.628;2023-03-07T11:15:18;14.00;;;3.10;;
76856;SDS011;66179;44.686;37.628;2023-03-07T11:17:49;12.20;;;3.30;;
76856;SDS011;66179;44.686;37.628;2023-03-07T11:20:18;14.90;;;3.40;;
76856;SDS011;66179;44.686;37.628;2023-03-07T11:25:40;15.55;;;3.40;;
76856;SDS011;66179;44.686;37.628;2023-03-07T11:28:24;16.23;;;3.78;;
76856;SDS011;66179;44.686;37.628;2023-03-07T11:31:18;17.67;;;3.80;;
76856;SDS011;66179;44.686;37.628;2023-03-07T11:33:50;19.25;;;4.07;;
76856;SDS011;66179;44.686;37.628;2023-03-07T11:36:24;12.70;;;3.50;;
76856;SDS011;66179;44.686;37.628;2023-03-07T11:39:04;15.10;;;3.83;;
76856;SDS011;66179;44.686;37.628;2023-03-07T11:41:59;17.02;;;3.75;;
76856;SDS011;66179;44.686;37.628;2023-03-07T11:44:32;10.07;;;2.85;;
76856;SDS011;66179;44.686;37.628;2023-03-07T12:01:51;15.82;;;4.15;;
76856;SDS011;66179;44.686;37.628;2023-03-07T12:09:53;16.90;;;4.15;;
76856;SDS011;66179;44.686;37.628;2023-03-07T12:25:50;15.00;;;4.07;;
76856;SDS011;66179;44.686;37.628;2023-03-07T12:28:25;15.57;;;4.00;;
76856;SDS011;66179;44.686;37.628;2023-03-07T12:33:49;15.98;;;4.15;;
76856;SDS011;66179;44.686;37.628;2023-03-07T12:36:29;13.05;;;4.00;;
76856;SDS011;66179;44.686;37.628;2023-03-07T12:42:00;13.80;;;4.10;;
76856;SDS011;66179;44.686;37.628;2023-03-07T12:44:49;21.67;;;4.53;;
76856;SDS011;66179;44.686;37.628;2023-03-07T12:52:49;16.15;;;4.70;;
76856;SDS011;66179;44.686;37.628;2023-03-07T12:55:38;14.90;;;4.55;;
76856;SDS011;66179;44.686;37.628;2023-03-07T13:01:06;18.75;;;5.45;;
76856;SDS011;66179;44.686;37.628;2023-03-07T13:06:14;17.33;;;5.00;;
76856;SDS011;66179;44.686;37.628;2023-03-07T13:08:50;21.17;;;5.38;;
76856;SDS011;66179;44.686;37.628;2023-03-07T13:11:23;15.87;;;4.53;;
76856;SDS011;66179;44.686;37.628;2023-03-07T13:13:53;20.15;;;5.20;;
76856;SDS011;66179;44.686;37.628;2023-03-07T13:21:58;20.13;;;6.28;;
76856;SDS011;66179;44.686;37.628;2023-03-07T13:24:35;19.37;;;5.83;;
76856;SDS011;66179;44.686;37.628;2023-03-07T13:27:12;19.25;;;5.85;;
76856;SDS011;66179;44.686;37.628;2023-03-07T13:43:04;19.60;;;5.70;;
76856;SDS011;66179;44.686;37.628;2023-03-07T13:45:58;16.70;;;5.22;;
76856;SDS011;66179;44.686;37.628;2023-03-07T13:56:16;15.25;;;5.22;;
76856;SDS011;66179;44.686;37.628;2023-03-07T14:04:11;21.50;;;6.07;;
76856;SDS011;66179;44.686;37.628;2023-03-07T14:15:22;20.98;;;6.00;;
76856;SDS011;66179;44.686;37.628;2023-03-07T14:18:10;23.87;;;5.53;;
76856;SDS011;66179;44.686;37.628;2023-03-07T14:20:59;18.00;;;5.57;;
76856;SDS011;66179;44.686;37.628;2023-03-07T14:26:40;21.05;;;6.25;;
76856;SDS011;66179;44.686;37.628;2023-03-07T14:29:17;20.65;;;5.78;;
76856;SDS011;66179;44.686;37.628;2023-03-07T14:31:57;22.97;;;6.13;;
76856;SDS011;66179;44.686;37.628;2023-03-07T14:34:30;20.75;;;5.65;;
76856;SDS011;66179;44.686;37.628;2023-03-07T14:37:06;27.20;;;6.07;;
76856;SDS011;66179;44.686;37.628;2023-03-07T14:39:43;17.02;;;5.97;;
76856;SDS011;66179;44.686;37.628;2023-03-07T14:42:35;17.40;;;6.57;;
76856;SDS011;66179;44.686;37.628;2023-03-07T14:50:31;20.55;;;6.93;;
76856;SDS011;66179;44.686;37.628;2023-03-07T14:53:01;18.50;;;7.10;;
76856;SDS011;66179;44.686;37.628;2023-03-07T14:55:32;20.52;;;5.53;;
76856;SDS011;66179;44.686;37.628;2023-03-07T14:58:02;18.20;;;5.70;;
76856;SDS011;66179;44.686;37.628;2023-03-07T15:00:30;16.70;;;5.82;;
76856;SDS011;66179;44.686;37.628;2023-03-07T15:03:04;20.67;;;5.70;;
76856;SDS011;66179;44.686;37.628;2023-03-07T15:05:46;20.55;;;6.38;;
76856;SDS011;66179;44.686;37.628;2023-03-07T15:08:31;18.77;;;5.82;;
76856;SDS011;66179;44.686;37.628;2023-03-07T15:11:11;20.77;;;5.77;;
76856;SDS011;66179;44.686;37.628;2023-03-07T15:16:38;17.77;;;5.72;;
76856;SDS011;66179;44.686;37.628;2023-03-07T15:21:59;19.98;;;6.25;;
76856;SDS011;66179;44.686;37.628;2023-03-07T15:27:00;18.10;;;5.45;;
76856;SDS011;66179;44.686;37.628;2023-03-07T15:29:29;22.05;;;5.70;;
76856;SDS011;66179;44.686;37.628;2023-03-07T15:31:59;24.58;;;7.10;;
76856;SDS011;66179;44.686;37.628;2023-03-07T15:34:32;20.70;;;5.95;;
76856;SDS011;66179;44.686;37.628;2023-03-07T15:37:20;17.43;;;5.70;;
76856;SDS011;66179;44.686;37.628;2023-03-07T15:42:47;23.20;;;6.10;;
76856;SDS011;66179;44.686;37.628;2023-03-07T15:50:58;20.97;;;6.07;;
76856;SDS011;66179;44.686;37.628;2023-03-07T15:53:30;16.90;;;6.25;;
76856;SDS011;66179;44.686;37.628;2023-03-07T15:56:19;15.13;;;5.68;;
76856;SDS011;66179;44.686;37.628;2023-03-07T15:58:49;19.83;;;6.07;;
76856;SDS011;66179;44.686;37.628;2023-03-07T16:01:19;18.42;;;6.13;;
76856;SDS011;66179;44.686;37.628;2023-03-07T16:03:51;20.97;;;5.90;;
76856;SDS011;66179;44.686;37.628;2023-03-07T16:06:38;19.58;;;6.13;;
76856;SDS011;66179;44.686;37.628;2023-03-07T16:09:13;19.98;;;6.22;;
76856;SDS011;66179;44.686;37.628;2023-03-07T16:11:44;18.85;;;6.05;;
76856;SDS011;66179;44.686;37.628;2023-03-07T16:14:28;18.55;;;6.95;;
76856;SDS011;66179;44.686;37.628;2023-03-07T16:17:00;17.60;;;6.40;;
76856;SDS011;66179;44.686;37.628;2023-03-07T16:19:30;19.02;;;5.82;;
76856;SDS011;66179;44.686;37.628;2023-03-07T16:21:56;14.85;;;5.85;;
76856;SDS011;66179;44.686;37.628;2023-03-07T16:24:23;21.48;;;5.95;;
76856;SDS011;66179;44.686;37.628;2023-03-07T16:26:49;18.98;;;5.75;;
76856;SDS011;66179;44.686;37.628;2023-03-07T16:29:20;17.77;;;6.27;;
76856;SDS011;66179;44.686;37.628;2023-03-07T16:31:48;20.17;;;6.32;;
76856;SDS011;66179;44.686;37.628;2023-03-07T16:34:18;19.48;;;6.43;;
76856;SDS011;66179;44.686;37.628;2023-03-07T16:36:46;17.55;;;5.60;;
76856;SDS011;66179;44.686;37.628;2023-03-07T16:39:13;18.33;;;6.43;;
76856;SDS011;66179;44.686;37.628;2023-03-07T16:41:45;18.40;;;5.60;;
76856;SDS011;66179;44.686;37.628;2023-03-07T16:44:16;16.58;;;6.25;;
76856;SDS011;66179;44.686;37.628;2023-03-07T16:46:45;17.65;;;5.97;;
76856;SDS011;66179;44.686;37.628;2023-03-07T16:49:23;20.08;;;6.00;;
76856;SDS011;66179;44.686;37.628;2023-03-07T16:51:49;18.35;;;6.28;;
76856;SDS011;66179;44.686;37.628;2023-03-07T16:54:16;21.50;;;6.83;;
76856;SDS011;66179;44.686;37.628;2023-03-07T16:56:44;20.40;;;6.00;;
76856;SDS011;66179;44.686;37.628;2023-03-07T16:59:13;17.75;;;5.93;;
76856;SDS011;66179;44.686;37.628;2023-03-07T17:01:43;20.05;;;6.10;;
76856;SDS011;66179;44.686;37.628;2023-03-07T17:04:11;19.80;;;6.40;;
76856;SDS011;66179;44.686;37.628;2023-03-07T17:06:38;18.10;;;5.00;;
76856;SDS011;66179;44.686;37.628;2023-03-07T17:09:05;17.92;;;5.57;;
76856;SDS011;66179;44.686;37.628;2023-03-07T17:11:34;21.92;;;6.63;;
76856;SDS011;66179;44.686;37.628;2023-03-07T17:14:03;20.70;;;6.03;;
76856;SDS011;66179;44.686;37.628;2023-03-07T17:16:38;20.40;;;6.65;;
76856;SDS011;66179;44.686;37.628;2023-03-07T17:19:12;19.50;;;5.77;;
76856;SDS011;66179;44.686;37.628;2023-03-07T17:21:53;19.38;;;5.55;;
76856;SDS011;66179;44.686;37.628;2023-03-07T17:24:20;20.33;;;5.78;;
76856;SDS011;66179;44.686;37.628;2023-03-07T17:26:46;18.58;;;5.70;;